sensor_id;sensor_type;location;lat;lon;timestamp;temperature;humidity
16594;DHT22;8410;52.532;13.336;2022-09-02T00:01:01;14.50;99.90
16594;DHT22;8410;52.532;13.336;2022-09-02T00:03:33;14.50;99.90
16594;DHT22;8410;52.532;13.336;2022-09-02T00:06:03;14.50;99.90
16594;DHT22;8410;52.532;13.336;2022-09-02T00:08:32;14.50;99.90
16594;DHT22;8410;52.532;13.336;2022-09-02T00:11:02;14.50;99.90
16594;DHT22;8410;52.532;13.336;2022-09-02T00:13:32;14.50;99.90
16594;DHT22;8410;52.532;13.336;2022-09-02T00:16:02;14.50;99.90
16594;DHT22;8410;52.532;13.336;2022-09-02T00:18:30;14.60;99.90
16594;DHT22;8410;52.532;13.336;2022-09-02T00:20:59;14.70;99.90
16594;DHT22;8410;52.532;13.336;2022-09-02T00:23:27;14.60;99.90
16594;DHT22;8410;52.532;13.336;2022-09-02T00:25:55;14.60;99.90
16594;DHT22;8410;52.532;13.336;2022-09-02T00:28:24;14.50;99.90
16594;DHT22;8410;52.532;13.336;2022-09-02T00:30:52;14.40;99.90
16594;DHT22;8410;52.532;13.336;2022-09-02T00:33:20;14.50;99.90
16594;DHT22;8410;52.532;13.336;2022-09-02T00:35:49;14.50;99.90
16594;DHT22;8410;52.532;13.336;2022-09-02T00:38:17;14.60;99.90
16594;DHT22;8410;52.532;13.336;2022-09-02T00:40:48;14.50;99.90
16594;DHT22;8410;52.532;13.336;2022-09-02T00:43:25;14.50;99.90
16594;DHT22;8410;52.532;13.336;2022-09-02T00:46:08;14.40;99.90
16594;DHT22;8410;52.532;13.336;2022-09-02T00:48:39;14.50;99.90
16594;DHT22;8410;52.532;13.336;2022-09-02T00:51:10;14.60;99.90
16594;DHT22;8410;52.532;13.336;2022-09-02T00:53:42;14.70;99.90
16594;DHT22;8410;52.532;13.336;2022-09-02T00:56:15;14.60;99.90
16594;DHT22;8410;52.532;13.336;2022-09-02T00:58:49;14.70;99.90
16594;DHT22;8410;52.532;13.336;2022-09-02T01:01:18;14.70;99.90
16594;DHT22;8410;52.532;13.336;2022-09-02T01:03:48;14.70;99.90
16594;DHT22;8410;52.532;13.336;2022-09-02T01:06:19;14.60;99.90
16594;DHT22;8410;52.532;13.336;2022-09-02T01:08:52;14.50;99.90
16594;DHT22;8410;52.532;13.336;2022-09-02T01:11:28;14.60;99.90
16594;DHT22;8410;52.532;13.336;2022-09-02T01:14:05;14.70;99.90
16594;DHT22;8410;52.532;13.336;2022-09-02T01:16:38;14.60;99.90
16594;DHT22;8410;52.532;13.336;2022-09-02T01:19:16;14.50;99.90
16594;DHT22;8410;52.532;13.336;2022-09-02T01:21:50;14.60;99.90
16594;DHT22;8410;52.532;13.336;2022-09-02T01:24:20;14.60;99.90
16594;DHT22;8410;52.532;13.336;2022-09-02T01:26:52;14.60;99.90
16594;DHT22;8410;52.532;13.336;2022-09-02T01:29:22;14.60;99.90
16594;DHT22;8410;52.532;13.336;2022-09-02T01:31:53;14.70;99.90
16594;DHT22;8410;52.532;13.336;2022-09-02T01:34:22;14.80;99.90
16594;DHT22;8410;52.532;13.336;2022-09-02T01:36:51;14.80;99.90
16594;DHT22;8410;52.532;13.336;2022-09-02T01:39:19;14.80;99.90
16594;DHT22;8410;52.532;13.336;2022-09-02T01:41:47;14.70;99.90
16594;DHT22;8410;52.532;13.336;2022-09-02T01:44:15;14.80;99.90
16594;DHT22;8410;52.532;13.336;2022-09-02T01:46:43;14.80;99.90
16594;DHT22;8410;52.532;13.336;2022-09-02T01:49:12;14.70;99.90
16594;DHT22;8410;52.532;13.336;2022-09-02T01:51:40;14.60;99.90
16594;DHT22;8410;52.532;13.336;2022-09-02T01:54:09;14.70;99.90
16594;DHT22;8410;52.532;13.336;2022-09-02T01:56:37;14.60;99.90
16594;DHT22;8410;52.532;13.336;2022-09-02T01:59:05;14.50;99.90
16594;DHT22;8410;52.532;13.336;2022-09-02T02:01:34;14.60;99.90
16594;DHT22;8410;52.532;13.336;2022-09-02T02:04:02;14.60;99.90
16594;DHT22;8410;52.532;13.336;2022-09-02T02:06:30;14.50;99.90
16594;DHT22;8410;52.532;13.336;2022-09-02T02:08:58;14.50;99.90
16594;DHT22;8410;52.532;13.336;2022-09-02T02:11:27;14.50;99.90
16594;DHT22;8410;52.532;13.336;2022-09-02T02:13:55;14.50;99.90
16594;DHT22;8410;52.532;13.336;2022-09-02T02:16:23;14.50;99.90
16594;DHT22;8410;52.532;13.336;2022-09-02T02:18:51;14.60;99.90
16594;DHT22;8410;52.532;13.336;2022-09-02T02:21:19;14.70;99.90
16594;DHT22;8410;52.532;13.336;2022-09-02T02:23:48;14.60;99.90
16594;DHT22;8410;52.532;13.336;2022-09-02T02:26:16;14.60;99.90
16594;DHT22;8410;52.532;13.336;2022-09-02T02:28:47;14.60;99.90
16594;DHT22;8410;52.532;13.336;2022-09-02T02:31:15;14.60;99.90
16594;DHT22;8410;52.532;13.336;2022-09-02T02:33:44;14.60;99.90
16594;DHT22;8410;52.532;13.336;2022-09-02T02:36:13;14.60;99.90
16594;DHT22;8410;52.532;13.336;2022-09-02T02:38:41;14.60;99.90
16594;DHT22;8410;52.532;13.336;2022-09-02T02:41:11;14.60;99.90
16594;DHT22;8410;52.532;13.336;2022-09-02T02:43:40;14.70;99.90
16594;DHT22;8410;52.532;13.336;2022-09-02T02:46:10;14.60;99.90
16594;DHT22;8410;52.532;13.336;2022-09-02T02:48:38;14.60;99.90
16594;DHT22;8410;52.532;13.336;2022-09-02T02:51:07;14.60;99.90
16594;DHT22;8410;52.532;13.336;2022-09-02T02:53:35;14.60;99.90
16594;DHT22;8410;52.532;13.336;2022-09-02T02:56:04;14.60;99.90
16594;DHT22;8410;52.532;13.336;2022-09-02T02:58:33;14.40;99.90
16594;DHT22;8410;52.532;13.336;2022-09-02T03:01:01;14.40;99.90
16594;DHT22;8410;52.532;13.336;2022-09-02T03:03:31;14.30;99.90
16594;DHT22;8410;52.532;13.336;2022-09-02T03:05:59;14.30;99.90
16594;DHT22;8410;52.532;13.336;2022-09-02T03:08:27;14.20;99.90
16594;DHT22;8410;52.532;13.336;2022-09-02T03:10:55;14.20;99.90
16594;DHT22;8410;52.532;13.336;2022-09-02T03:13:24;14.30;99.90
16594;DHT22;8410;52.532;13.336;2022-09-02T03:15:57;14.30;99.90
16594;DHT22;8410;52.532;13.336;2022-09-02T03:18:26;14.30;99.90
16594;DHT22;8410;52.532;13.336;2022-09-02T03:20:55;14.30;99.90
16594;DHT22;8410;52.532;13.336;2022-09-02T03:23:23;14.30;99.90
16594;DHT22;8410;52.532;13.336;2022-09-02T03:25:51;14.30;99.90
16594;DHT22;8410;52.532;13.336;2022-09-02T03:28:19;14.20;99.90
16594;DHT22;8410;52.532;13.336;2022-09-02T03:30:47;14.00;99.90
16594;DHT22;8410;52.532;13.336;2022-09-02T03:33:15;14.00;99.90
16594;DHT22;8410;52.532;13.336;2022-09-02T03:35:44;14.00;99.90
16594;DHT22;8410;52.532;13.336;2022-09-02T03:38:13;13.90;99.90
16594;DHT22;8410;52.532;13.336;2022-09-02T03:40:41;14.00;99.90
16594;DHT22;8410;52.532;13.336;2022-09-02T03:43:09;14.00;99.90
16594;DHT22;8410;52.532;13.336;2022-09-02T03:45:37;13.80;99.90
16594;DHT22;8410;52.532;13.336;2022-09-02T03:48:07;13.80;99.90
16594;DHT22;8410;52.532;13.336;2022-09-02T03:50:40;13.80;99.90
16594;DHT22;8410;52.532;13.336;2022-09-02T03:53:09;13.70;99.90
16594;DHT22;8410;52.532;13.336;2022-09-02T03:55:47;13.60;99.90
16594;DHT22;8410;52.532;13.336;2022-09-02T03:58:16;13.60;99.90
16594;DHT22;8410;52.532;13.336;2022-09-02T04:00:49;13.60;99.90
16594;DHT22;8410;52.532;13.336;2022-09-02T04:03:18;13.70;99.90
16594;DHT22;8410;52.532;13.336;2022-09-02T04:05:47;13.60;99.90
16594;DHT22;8410;52.532;13.336;2022-09-02T04:08:16;13.60;99.90
16594;DHT22;8410;52.532;13.336;2022-09-02T04:10:44;13.70;99.90
16594;DHT22;8410;52.532;13.336;2022-09-02T04:13:13;13.70;99.90
16594;DHT22;8410;52.532;13.336;2022-09-02T04:15:43;13.60;99.90
16594;DHT22;8410;52.532;13.336;2022-09-02T04:18:14;13.60;99.90
16594;DHT22;8410;52.532;13.336;2022-09-02T04:20:44;13.60;99.90
16594;DHT22;8410;52.532;13.336;2022-09-02T04:23:13;13.50;99.90
16594;DHT22;8410;52.532;13.336;2022-09-02T04:25:42;13.60;99.90
16594;DHT22;8410;52.532;13.336;2022-09-02T04:28:10;13.60;99.90
16594;DHT22;8410;52.532;13.336;2022-09-02T04:30:41;13.50;99.90
16594;DHT22;8410;52.532;13.336;2022-09-02T04:33:10;13.50;99.90
16594;DHT22;8410;52.532;13.336;2022-09-02T04:35:40;13.50;99.90
16594;DHT22;8410;52.532;13.336;2022-09-02T04:38:09;13.50;99.90
16594;DHT22;8410;52.532;13.336;2022-09-02T04:40:39;13.50;99.90
16594;DHT22;8410;52.532;13.336;2022-09-02T04:43:08;13.40;99.90
16594;DHT22;8410;52.532;13.336;2022-09-02T04:45:40;13.50;99.90
16594;DHT22;8410;52.532;13.336;2022-09-02T04:48:10;13.60;99.90
16594;DHT22;8410;52.532;13.336;2022-09-02T04:50:39;13.50;99.90
16594;DHT22;8410;52.532;13.336;2022-09-02T04:53:08;13.60;99.90
16594;DHT22;8410;52.532;13.336;2022-09-02T04:55:37;13.50;99.90
16594;DHT22;8410;52.532;13.336;2022-09-02T04:58:06;13.30;99.90
16594;DHT22;8410;52.532;13.336;2022-09-02T05:00:36;13.40;99.90
16594;DHT22;8410;52.532;13.336;2022-09-02T05:03:06;13.40;99.90
16594;DHT22;8410;52.532;13.336;2022-09-02T05:05:34;13.40;99.90
16594;DHT22;8410;52.532;13.336;2022-09-02T05:08:04;13.40;99.90
16594;DHT22;8410;52.532;13.336;2022-09-02T05:10:33;13.40;99.90
16594;DHT22;8410;52.532;13.336;2022-09-02T05:13:00;13.30;99.90
16594;DHT22;8410;52.532;13.336;2022-09-02T05:15:28;13.40;99.90
16594;DHT22;8410;52.532;13.336;2022-09-02T05:17:57;13.40;99.90
16594;DHT22;8410;52.532;13.336;2022-09-02T05:20:26;13.40;99.90
16594;DHT22;8410;52.532;13.336;2022-09-02T05:22:54;13.40;99.90
16594;DHT22;8410;52.532;13.336;2022-09-02T05:25:22;13.40;99.90
16594;DHT22;8410;52.532;13.336;2022-09-02T05:27:50;13.40;99.90
16594;DHT22;8410;52.532;13.336;2022-09-02T05:30:18;13.60;99.90
16594;DHT22;8410;52.532;13.336;2022-09-02T05:32:46;13.60;99.90
16594;DHT22;8410;52.532;13.336;2022-09-02T05:35:16;13.70;99.90
16594;DHT22;8410;52.532;13.336;2022-09-02T05:37:45;13.80;99.90
16594;DHT22;8410;52.532;13.336;2022-09-02T05:40:13;14.10;99.90
16594;DHT22;8410;52.532;13.336;2022-09-02T05:42:48;13.90;99.90
16594;DHT22;8410;52.532;13.336;2022-09-02T05:45:16;13.80;99.90
16594;DHT22;8410;52.532;13.336;2022-09-02T05:47:44;13.90;99.90
16594;DHT22;8410;52.532;13.336;2022-09-02T05:50:11;13.90;99.90
16594;DHT22;8410;52.532;13.336;2022-09-02T05:52:40;13.90;99.90
16594;DHT22;8410;52.532;13.336;2022-09-02T05:55:10;14.00;99.90
16594;DHT22;8410;52.532;13.336;2022-09-02T05:57:38;14.00;99.90
16594;DHT22;8410;52.532;13.336;2022-09-02T06:00:07;14.20;99.90
16594;DHT22;8410;52.532;13.336;2022-09-02T06:02:35;14.10;99.90
16594;DHT22;8410;52.532;13.336;2022-09-02T06:05:04;14.30;99.90
16594;DHT22;8410;52.532;13.336;2022-09-02T06:07:35;14.30;99.90
16594;DHT22;8410;52.532;13.336;2022-09-02T06:10:03;14.30;99.90
16594;DHT22;8410;52.532;13.336;2022-09-02T06:12:34;14.50;99.90
16594;DHT22;8410;52.532;13.336;2022-09-02T06:15:08;14.60;99.90
16594;DHT22;8410;52.532;13.336;2022-09-02T06:17:37;14.40;99.90
16594;DHT22;8410;52.532;13.336;2022-09-02T06:20:06;14.30;99.90
16594;DHT22;8410;52.532;13.336;2022-09-02T06:22:36;14.40;99.90
16594;DHT22;8410;52.532;13.336;2022-09-02T06:25:05;14.50;99.90
16594;DHT22;8410;52.532;13.336;2022-09-02T06:27:36;14.50;99.90
16594;DHT22;8410;52.532;13.336;2022-09-02T06:30:04;14.60;99.90
16594;DHT22;8410;52.532;13.336;2022-09-02T06:32:33;14.90;99.90
16594;DHT22;8410;52.532;13.336;2022-09-02T06:35:01;14.90;99.90
16594;DHT22;8410;52.532;13.336;2022-09-02T06:37:29;15.10;99.90
16594;DHT22;8410;52.532;13.336;2022-09-02T06:39:57;15.40;99.90
16594;DHT22;8410;52.532;13.336;2022-09-02T06:42:25;15.60;99.90
16594;DHT22;8410;52.532;13.336;2022-09-02T06:44:54;15.10;99.90
16594;DHT22;8410;52.532;13.336;2022-09-02T06:47:22;14.90;99.90
16594;DHT22;8410;52.532;13.336;2022-09-02T06:49:50;15.00;99.90
16594;DHT22;8410;52.532;13.336;2022-09-02T06:52:17;15.20;99.90
16594;DHT22;8410;52.532;13.336;2022-09-02T06:54:45;15.10;99.90
16594;DHT22;8410;52.532;13.336;2022-09-02T06:57:14;15.00;99.90
16594;DHT22;8410;52.532;13.336;2022-09-02T06:59:42;15.30;99.90
16594;DHT22;8410;52.532;13.336;2022-09-02T07:02:12;15.20;99.90
16594;DHT22;8410;52.532;13.336;2022-09-02T07:04:40;14.90;99.90
16594;DHT22;8410;52.532;13.336;2022-09-02T07:07:25;14.90;99.90
16594;DHT22;8410;52.532;13.336;2022-09-02T07:09:53;15.30;99.90
16594;DHT22;8410;52.532;13.336;2022-09-02T07:12:21;15.30;99.90
16594;DHT22;8410;52.532;13.336;2022-09-02T07:14:52;15.60;99.90
16594;DHT22;8410;52.532;13.336;2022-09-02T07:17:21;15.70;99.90
16594;DHT22;8410;52.532;13.336;2022-09-02T07:19:50;15.50;99.90
16594;DHT22;8410;52.532;13.336;2022-09-02T07:22:21;15.70;99.90
16594;DHT22;8410;52.532;13.336;2022-09-02T07:24:49;15.70;99.90
16594;DHT22;8410;52.532;13.336;2022-09-02T07:27:17;15.70;99.90
16594;DHT22;8410;52.532;13.336;2022-09-02T07:29:46;15.80;99.90
16594;DHT22;8410;52.532;13.336;2022-09-02T07:32:15;16.10;99.90
16594;DHT22;8410;52.532;13.336;2022-09-02T07:34:44;16.10;99.90
16594;DHT22;8410;52.532;13.336;2022-09-02T07:37:12;16.00;99.90
16594;DHT22;8410;52.532;13.336;2022-09-02T07:39:40;16.00;99.90
16594;DHT22;8410;52.532;13.336;2022-09-02T07:42:09;16.10;99.90
16594;DHT22;8410;52.532;13.336;2022-09-02T07:44:37;16.20;99.90
16594;DHT22;8410;52.532;13.336;2022-09-02T07:47:06;16.50;99.90
16594;DHT22;8410;52.532;13.336;2022-09-02T07:49:34;16.50;99.90
16594;DHT22;8410;52.532;13.336;2022-09-02T07:52:23;16.70;99.90
16594;DHT22;8410;52.532;13.336;2022-09-02T07:54:51;16.60;99.90
16594;DHT22;8410;52.532;13.336;2022-09-02T07:57:19;16.80;99.90
16594;DHT22;8410;52.532;13.336;2022-09-02T07:59:47;16.80;99.90
16594;DHT22;8410;52.532;13.336;2022-09-02T08:02:16;16.80;99.90
16594;DHT22;8410;52.532;13.336;2022-09-02T08:04:44;16.90;99.90
16594;DHT22;8410;52.532;13.336;2022-09-02T08:07:12;17.00;99.90
16594;DHT22;8410;52.532;13.336;2022-09-02T08:09:43;16.90;99.90
16594;DHT22;8410;52.532;13.336;2022-09-02T08:12:11;17.00;99.90
16594;DHT22;8410;52.532;13.336;2022-09-02T08:14:40;17.10;99.90
16594;DHT22;8410;52.532;13.336;2022-09-02T08:17:08;17.10;99.90
16594;DHT22;8410;52.532;13.336;2022-09-02T08:19:36;17.10;99.90
16594;DHT22;8410;52.532;13.336;2022-09-02T08:22:04;17.10;99.90
16594;DHT22;8410;52.532;13.336;2022-09-02T08:24:33;17.10;99.90
16594;DHT22;8410;52.532;13.336;2022-09-02T08:27:02;17.30;99.90
16594;DHT22;8410;52.532;13.336;2022-09-02T08:29:31;17.50;99.90
16594;DHT22;8410;52.532;13.336;2022-09-02T08:32:00;17.60;99.90
16594;DHT22;8410;52.532;13.336;2022-09-02T08:34:28;17.90;99.90
16594;DHT22;8410;52.532;13.336;2022-09-02T08:36:56;17.90;99.90
16594;DHT22;8410;52.532;13.336;2022-09-02T08:39:24;18.00;99.90
16594;DHT22;8410;52.532;13.336;2022-09-02T08:41:57;17.90;99.90
16594;DHT22;8410;52.532;13.336;2022-09-02T08:44:36;17.90;99.90
16594;DHT22;8410;52.532;13.336;2022-09-02T08:47:10;18.10;99.90
16594;DHT22;8410;52.532;13.336;2022-09-02T08:49:45;18.10;99.90
16594;DHT22;8410;52.532;13.336;2022-09-02T08:52:21;18.10;99.90
16594;DHT22;8410;52.532;13.336;2022-09-02T08:54:57;18.20;98.90
16594;DHT22;8410;52.532;13.336;2022-09-02T08:57:29;18.30;98.80
16594;DHT22;8410;52.532;13.336;2022-09-02T09:00:00;18.30;99.20
16594;DHT22;8410;52.532;13.336;2022-09-02T09:02:36;18.30;99.20
16594;DHT22;8410;52.532;13.336;2022-09-02T09:05:21;18.30;98.90
16594;DHT22;8410;52.532;13.336;2022-09-02T09:08:11;18.40;99.30
16594;DHT22;8410;52.532;13.336;2022-09-02T09:10:53;18.40;99.40
16594;DHT22;8410;52.532;13.336;2022-09-02T09:14:00;18.50;99.30
16594;DHT22;8410;52.532;13.336;2022-09-02T09:16:39;18.60;99.40
16594;DHT22;8410;52.532;13.336;2022-09-02T09:19:13;18.70;98.30
16594;DHT22;8410;52.532;13.336;2022-09-02T09:21:43;18.60;97.80
16594;DHT22;8410;52.532;13.336;2022-09-02T09:24:20;18.80;97.60
16594;DHT22;8410;52.532;13.336;2022-09-02T09:27:04;18.70;96.50
16594;DHT22;8410;52.532;13.336;2022-09-02T09:29:39;18.80;96.30
16594;DHT22;8410;52.532;13.336;2022-09-02T09:32:14;19.10;96.50
16594;DHT22;8410;52.532;13.336;2022-09-02T09:34:56;19.10;94.80
16594;DHT22;8410;52.532;13.336;2022-09-02T09:37:29;19.00;95.00
16594;DHT22;8410;52.532;13.336;2022-09-02T09:40:27;19.10;95.40
16594;DHT22;8410;52.532;13.336;2022-09-02T09:43:09;19.30;95.20
16594;DHT22;8410;52.532;13.336;2022-09-02T09:45:45;19.30;95.00
16594;DHT22;8410;52.532;13.336;2022-09-02T09:48:21;19.40;94.30
16594;DHT22;8410;52.532;13.336;2022-09-02T09:51:13;19.40;94.50
16594;DHT22;8410;52.532;13.336;2022-09-02T09:53:42;19.40;93.90
16594;DHT22;8410;52.532;13.336;2022-09-02T09:56:29;19.60;94.20
16594;DHT22;8410;52.532;13.336;2022-09-02T09:59:06;19.60;93.50
16594;DHT22;8410;52.532;13.336;2022-09-02T10:01:56;19.60;93.60
16594;DHT22;8410;52.532;13.336;2022-09-02T10:04:28;19.70;93.30
16594;DHT22;8410;52.532;13.336;2022-09-02T10:07:09;19.90;92.70
16594;DHT22;8410;52.532;13.336;2022-09-02T10:09:38;19.60;92.90
16594;DHT22;8410;52.532;13.336;2022-09-02T10:12:08;19.70;92.40
16594;DHT22;8410;52.532;13.336;2022-09-02T10:14:41;19.90;92.80
16594;DHT22;8410;52.532;13.336;2022-09-02T10:17:25;19.80;92.70
16594;DHT22;8410;52.532;13.336;2022-09-02T10:20:04;19.90;92.20
16594;DHT22;8410;52.532;13.336;2022-09-02T10:22:58;19.90;90.80
16594;DHT22;8410;52.532;13.336;2022-09-02T10:25:50;19.90;89.80
16594;DHT22;8410;52.532;13.336;2022-09-02T10:28:39;19.80;91.20
16594;DHT22;8410;52.532;13.336;2022-09-02T10:31:24;19.80;91.60
16594;DHT22;8410;52.532;13.336;2022-09-02T10:34:09;19.60;90.90
16594;DHT22;8410;52.532;13.336;2022-09-02T10:37:05;19.70;91.40
16594;DHT22;8410;52.532;13.336;2022-09-02T10:40:03;20.10;91.30
16594;DHT22;8410;52.532;13.336;2022-09-02T10:42:47;20.30;91.30
16594;DHT22;8410;52.532;13.336;2022-09-02T10:45:30;20.60;91.10
16594;DHT22;8410;52.532;13.336;2022-09-02T10:48:20;20.60;91.00
16594;DHT22;8410;52.532;13.336;2022-09-02T10:51:03;20.40;91.20
16594;DHT22;8410;52.532;13.336;2022-09-02T10:53:42;20.50;91.40
16594;DHT22;8410;52.532;13.336;2022-09-02T10:56:23;20.60;90.90
16594;DHT22;8410;52.532;13.336;2022-09-02T10:58:58;20.50;89.70
16594;DHT22;8410;52.532;13.336;2022-09-02T11:01:35;20.30;90.40
16594;DHT22;8410;52.532;13.336;2022-09-02T11:04:15;20.10;90.70
16594;DHT22;8410;52.532;13.336;2022-09-02T11:06:55;20.00;91.30
16594;DHT22;8410;52.532;13.336;2022-09-02T11:09:32;20.10;91.10
16594;DHT22;8410;52.532;13.336;2022-09-02T11:12:06;20.20;90.50
16594;DHT22;8410;52.532;13.336;2022-09-02T11:14:47;20.40;89.60
16594;DHT22;8410;52.532;13.336;2022-09-02T11:17:24;20.40;90.00
16594;DHT22;8410;52.532;13.336;2022-09-02T11:20:00;19.90;90.20
16594;DHT22;8410;52.532;13.336;2022-09-02T11:22:41;19.90;90.60
16594;DHT22;8410;52.532;13.336;2022-09-02T11:25:22;19.90;91.20
16594;DHT22;8410;52.532;13.336;2022-09-02T11:27:57;20.20;91.00
16594;DHT22;8410;52.532;13.336;2022-09-02T11:30:42;20.50;90.60
16594;DHT22;8410;52.532;13.336;2022-09-02T11:33:18;20.40;88.10
16594;DHT22;8410;52.532;13.336;2022-09-02T11:35:50;20.30;87.30
16594;DHT22;8410;52.532;13.336;2022-09-02T11:38:31;20.30;87.30
16594;DHT22;8410;52.532;13.336;2022-09-02T11:41:24;20.20;87.30
16594;DHT22;8410;52.532;13.336;2022-09-02T11:44:12;20.10;87.40
16594;DHT22;8410;52.532;13.336;2022-09-02T11:47:07;20.10;87.30
16594;DHT22;8410;52.532;13.336;2022-09-02T11:50:23;20.10;87.30
16594;DHT22;8410;52.532;13.336;2022-09-02T11:53:16;20.20;87.90
16594;DHT22;8410;52.532;13.336;2022-09-02T11:55:54;20.10;88.00
16594;DHT22;8410;52.532;13.336;2022-09-02T11:58:33;20.20;88.50
16594;DHT22;8410;52.532;13.336;2022-09-02T12:01:23;20.40;87.80
16594;DHT22;8410;52.532;13.336;2022-09-02T12:03:58;20.50;86.80
16594;DHT22;8410;52.532;13.336;2022-09-02T12:07:20;20.50;85.30
16594;DHT22;8410;52.532;13.336;2022-09-02T12:09:55;20.60;82.20
16594;DHT22;8410;52.532;13.336;2022-09-02T12:13:03;20.60;81.50
16594;DHT22;8410;52.532;13.336;2022-09-02T12:15:34;20.70;81.30
16594;DHT22;8410;52.532;13.336;2022-09-02T12:18:10;20.60;81.10
16594;DHT22;8410;52.532;13.336;2022-09-02T12:21:09;20.40;81.20
16594;DHT22;8410;52.532;13.336;2022-09-02T12:24:14;20.50;82.60
16594;DHT22;8410;52.532;13.336;2022-09-02T12:27:18;20.80;81.50
16594;DHT22;8410;52.532;13.336;2022-09-02T12:29:56;20.90;80.20
16594;DHT22;8410;52.532;13.336;2022-09-02T12:35:52;20.80;80.10
16594;DHT22;8410;52.532;13.336;2022-09-02T12:38:29;20.90;80.90
16594;DHT22;8410;52.532;13.336;2022-09-02T12:41:19;20.90;81.50
16594;DHT22;8410;52.532;13.336;2022-09-02T12:44:21;21.00;81.00
16594;DHT22;8410;52.532;13.336;2022-09-02T12:47:05;21.10;81.10
16594;DHT22;8410;52.532;13.336;2022-09-02T12:49:42;21.10;81.70
16594;DHT22;8410;52.532;13.336;2022-09-02T12:52:39;21.00;80.40
16594;DHT22;8410;52.532;13.336;2022-09-02T12:55:14;20.90;79.00
16594;DHT22;8410;52.532;13.336;2022-09-02T12:57:48;21.00;79.60
16594;DHT22;8410;52.532;13.336;2022-09-02T13:00:25;21.00;80.20
16594;DHT22;8410;52.532;13.336;2022-09-02T13:03:19;21.00;80.60
16594;DHT22;8410;52.532;13.336;2022-09-02T13:05:56;20.90;81.40
16594;DHT22;8410;52.532;13.336;2022-09-02T13:12:26;21.30;80.50
16594;DHT22;8410;52.532;13.336;2022-09-02T13:15:29;21.00;79.60
16594;DHT22;8410;52.532;13.336;2022-09-02T13:19:00;21.30;79.00
16594;DHT22;8410;52.532;13.336;2022-09-02T13:22:12;21.30;78.90
16594;DHT22;8410;52.532;13.336;2022-09-02T13:25:37;21.20;77.80
16594;DHT22;8410;52.532;13.336;2022-09-02T13:28:49;21.00;79.10
16594;DHT22;8410;52.532;13.336;2022-09-02T13:31:32;21.20;78.80
16594;DHT22;8410;52.532;13.336;2022-09-02T13:34:03;21.20;79.20
16594;DHT22;8410;52.532;13.336;2022-09-02T13:36:35;21.10;78.90
16594;DHT22;8410;52.532;13.336;2022-09-02T13:39:15;20.90;79.40
16594;DHT22;8410;52.532;13.336;2022-09-02T13:41:44;20.80;79.40
16594;DHT22;8410;52.532;13.336;2022-09-02T13:44:20;20.60;78.00
16594;DHT22;8410;52.532;13.336;2022-09-02T13:46:51;20.50;79.00
16594;DHT22;8410;52.532;13.336;2022-09-02T13:49:24;20.70;78.80
16594;DHT22;8410;52.532;13.336;2022-09-02T13:51:55;21.00;78.70
16594;DHT22;8410;52.532;13.336;2022-09-02T13:54:30;21.10;77.70
16594;DHT22;8410;52.532;13.336;2022-09-02T13:57:03;21.20;77.40
16594;DHT22;8410;52.532;13.336;2022-09-02T13:59:35;21.20;77.40
16594;DHT22;8410;52.532;13.336;2022-09-02T14:02:23;21.00;77.00
16594;DHT22;8410;52.532;13.336;2022-09-02T14:04:58;20.90;77.90
16594;DHT22;8410;52.532;13.336;2022-09-02T14:07:32;20.80;77.90
16594;DHT22;8410;52.532;13.336;2022-09-02T14:10:06;20.70;77.70
16594;DHT22;8410;52.532;13.336;2022-09-02T14:12:38;20.60;77.70
16594;DHT22;8410;52.532;13.336;2022-09-02T14:15:09;20.60;77.50
16594;DHT22;8410;52.532;13.336;2022-09-02T14:17:40;20.50;77.80
16594;DHT22;8410;52.532;13.336;2022-09-02T14:20:17;20.50;77.70
16594;DHT22;8410;52.532;13.336;2022-09-02T14:22:53;20.50;78.30
16594;DHT22;8410;52.532;13.336;2022-09-02T14:25:24;20.50;78.60
16594;DHT22;8410;52.532;13.336;2022-09-02T14:27:55;20.40;78.40
16594;DHT22;8410;52.532;13.336;2022-09-02T14:30:28;20.40;78.60
16594;DHT22;8410;52.532;13.336;2022-09-02T14:33:16;20.50;79.10
16594;DHT22;8410;52.532;13.336;2022-09-02T14:35:58;20.60;78.40
16594;DHT22;8410;52.532;13.336;2022-09-02T14:38:30;20.60;78.80
16594;DHT22;8410;52.532;13.336;2022-09-02T14:41:05;20.60;78.30
16594;DHT22;8410;52.532;13.336;2022-09-02T14:43:44;20.60;78.50
16594;DHT22;8410;52.532;13.336;2022-09-02T14:46:23;20.70;78.50
16594;DHT22;8410;52.532;13.336;2022-09-02T14:48:58;20.80;78.70
16594;DHT22;8410;52.532;13.336;2022-09-02T14:51:36;20.90;78.20
16594;DHT22;8410;52.532;13.336;2022-09-02T14:54:06;20.90;77.80
16594;DHT22;8410;52.532;13.336;2022-09-02T14:56:45;20.90;77.40
16594;DHT22;8410;52.532;13.336;2022-09-02T14:59:16;20.80;77.30
16594;DHT22;8410;52.532;13.336;2022-09-02T15:01:46;20.90;77.40
16594;DHT22;8410;52.532;13.336;2022-09-02T15:04:17;20.90;76.90
16594;DHT22;8410;52.532;13.336;2022-09-02T15:06:47;20.90;77.10
16594;DHT22;8410;52.532;13.336;2022-09-02T15:09:15;20.70;76.80
16594;DHT22;8410;52.532;13.336;2022-09-02T15:11:45;20.90;77.00
16594;DHT22;8410;52.532;13.336;2022-09-02T15:14:16;20.90;76.90
16594;DHT22;8410;52.532;13.336;2022-09-02T15:16:44;20.90;76.20
16594;DHT22;8410;52.532;13.336;2022-09-02T15:19:12;20.90;76.30
16594;DHT22;8410;52.532;13.336;2022-09-02T15:21:39;20.80;76.30
16594;DHT22;8410;52.532;13.336;2022-09-02T15:24:09;20.70;76.30
16594;DHT22;8410;52.532;13.336;2022-09-02T15:26:36;20.60;77.40
16594;DHT22;8410;52.532;13.336;2022-09-02T15:29:04;20.60;77.10
16594;DHT22;8410;52.532;13.336;2022-09-02T15:31:33;20.60;77.10
16594;DHT22;8410;52.532;13.336;2022-09-02T15:34:02;20.60;77.10
16594;DHT22;8410;52.532;13.336;2022-09-02T15:36:30;20.70;77.00
16594;DHT22;8410;52.532;13.336;2022-09-02T15:38:58;20.80;77.00
16594;DHT22;8410;52.532;13.336;2022-09-02T15:41:27;20.70;76.80
16594;DHT22;8410;52.532;13.336;2022-09-02T15:43:57;20.70;77.70
16594;DHT22;8410;52.532;13.336;2022-09-02T15:46:28;20.80;77.00
16594;DHT22;8410;52.532;13.336;2022-09-02T15:49:00;20.80;77.00
16594;DHT22;8410;52.532;13.336;2022-09-02T15:51:31;20.90;77.30
16594;DHT22;8410;52.532;13.336;2022-09-02T15:54:01;21.00;75.00
16594;DHT22;8410;52.532;13.336;2022-09-02T15:59:03;20.90;73.10
16594;DHT22;8410;52.532;13.336;2022-09-02T16:01:37;20.70;74.50
16594;DHT22;8410;52.532;13.336;2022-09-02T16:04:07;20.60;74.90
16594;DHT22;8410;52.532;13.336;2022-09-02T16:06:36;20.60;74.60
16594;DHT22;8410;52.532;13.336;2022-09-02T16:09:06;20.60;74.70
16594;DHT22;8410;52.532;13.336;2022-09-02T16:11:37;20.50;74.40
16594;DHT22;8410;52.532;13.336;2022-09-02T16:14:06;20.40;74.40
16594;DHT22;8410;52.532;13.336;2022-09-02T16:16:35;20.40;74.40
16594;DHT22;8410;52.532;13.336;2022-09-02T16:19:05;20.40;74.50
16594;DHT22;8410;52.532;13.336;2022-09-02T16:21:34;20.40;74.60